Time;durP1;ratioP1;P1;durP2;ratioP2;P2;SDS_P1;SDS_P2;PMS_P1;PMS_P2;Temp;Humidity;BMP_temperature;BMP_pressure;BME280_temperature;BME280_humidity;BME280_pressure;Samples;Min_cycle;Max_cycle;Signal;HPM_P1;HPM_P2
2023/01/04 00:01:10;;;;;;;;;2.00;2.00;;;;;-146.44;100.00;58906.56;5112048;27;45459;-62
2023/01/04 00:03:36;;;;;;;;;1.33;1.33;;;;;-146.44;100.00;58906.56;5118798;27;45574;-62
2023/01/04 00:06:04;;;;;;;;;2.00;2.00;;;;;-146.44;100.00;58906.56;5116445;27;46260;-62
2023/01/04 00:08:29;;;;;;;;;2.33;2.33;;;;;-146.44;100.00;58906.56;5118508;27;45457;-62
2023/01/04 00:11:22;;;;;;;;;2.67;2.33;;;;;-146.44;100.00;58906.56;5117509;27;45465;-61
2023/01/04 00:13:49;;;;;;;;;3.00;3.00;;;;;-146.44;100.00;58906.56;5113835;27;45363;-61
2023/01/04 00:16:20;;;;;;;;;1.33;1.33;;;;;-146.44;100.00;58906.56;5117477;27;46308;-62
2023/01/04 00:18:46;;;;;;;;;2.00;2.00;;;;;-146.44;100.00;58906.56;5118235;27;45444;-61
2023/01/04 00:21:17;;;;;;;;;2.00;1.00;;;;;-146.44;100.00;58906.56;5117619;27;45452;-62
2023/01/04 00:23:44;;;;;;;;;2.00;2.00;;;;;-146.44;100.00;58906.56;5118212;27;45569;-61
2023/01/04 00:26:13;;;;;;;;;1.00;1.00;;;;;-146.44;100.00;58906.56;5102785;27;45664;-61
2023/01/04 00:28:39;;;;;;;;;3.00;3.00;;;;;-146.44;100.00;58906.56;5116913;27;45553;-63
2023/01/04 00:31:06;;;;;;;;;2.33;2.33;;;;;-146.44;100.00;58906.56;5114827;27;45382;-61
2023/01/04 00:33:32;;;;;;;;;2.33;2.33;;;;;-146.44;100.00;58906.56;5114115;27;45449;-61
2023/01/04 00:36:03;;;;;;;;;3.00;3.00;;;;;-146.44;100.00;58906.56;5107524;27;46201;-61
2023/01/04 00:38:28;;;;;;;;;2.00;1.00;;;;;-146.44;100.00;58906.56;5115848;27;45455;-62
2023/01/04 00:40:53;;;;;;;;;4.00;3.00;;;;;-146.44;100.00;58906.56;5114456;27;45632;-62
2023/01/04 00:43:19;;;;;;;;;2.00;2.00;;;;;-146.44;100.00;58906.56;5115454;27;45426;-61
2023/01/04 00:45:44;;;;;;;;;3.00;2.00;;;;;-146.44;100.00;58906.56;5114395;27;45520;-62
2023/01/04 00:48:09;;;;;;;;;0.33;0.33;;;;;-146.44;100.00;58906.56;5111659;27;45401;-62
2023/01/04 00:50:35;;;;;;;;;2.33;2.33;;;;;-146.44;100.00;58906.56;5101209;27;45500;-62
2023/01/04 00:53:00;;;;;;;;;5.67;3.00;;;;;-146.44;100.00;58906.56;5108932;27;45421;-63
2023/01/04 00:55:25;;;;;;;;;3.33;3.00;;;;;-146.44;100.00;58906.56;5116061;27;46196;-61
2023/01/04 00:57:50;;;;;;;;;5.00;3.33;;;;;-146.44;100.00;58906.56;5115256;27;45456;-62
2023/01/04 01:00:16;;;;;;;;;2.67;2.33;;;;;-146.44;100.00;58906.56;5116425;27;45478;-62
2023/01/04 01:02:41;;;;;;;;;5.00;3.00;;;;;-146.44;100.00;58906.56;5115834;27;45535;-62
2023/01/04 01:05:07;;;;;;;;;2.00;2.00;;;;;-146.44;100.00;58906.56;5116205;27;46657;-63
2023/01/04 01:07:32;;;;;;;;;2.00;2.00;;;;;-146.44;100.00;58906.56;5110687;27;45534;-61
2023/01/04 01:09:57;;;;;;;;;1.33;1.33;;;;;-146.44;100.00;58906.56;5116331;27;45480;-61
2023/01/04 01:17:35;;;;;;;;;2.33;2.33;;;;;-146.44;100.00;58906.56;5660020;22;46612;-60
2023/01/04 01:20:00;;;;;;;;;2.00;2.00;;;;;-146.44;100.00;58906.56;5091904;27;45451;-60
2023/01/04 01:25:31;;;;;;;;;2.67;2.67;;;;;-146.44;100.00;58906.56;5483179;22;46374;-55
2023/01/04 01:27:57;;;;;;;;;3.00;3.00;;;;;-146.44;100.00;58906.56;5024116;28;45477;-58
2023/01/04 01:30:22;;;;;;;;;4.33;4.33;;;;;-146.44;100.00;58906.56;5033511;28;45392;-56
2023/01/04 01:32:47;;;;;;;;;3.00;2.67;;;;;-146.44;100.00;58906.56;5028599;28;45555;-54
2023/01/04 01:35:13;;;;;;;;;4.00;3.00;;;;;-146.44;100.00;58906.56;5033249;28;45410;-58
2023/01/04 01:37:38;;;;;;;;;4.00;3.00;;;;;-146.44;100.00;58906.56;5035347;28;49651;-56
2023/01/04 01:40:04;;;;;;;;;3.67;3.67;;;;;-146.44;100.00;58906.56;5033280;28;47202;-57
2023/01/04 01:42:29;;;;;;;;;3.00;3.00;;;;;-146.44;100.00;58906.56;5034515;28;45510;-56
2023/01/04 01:45:00;;;;;;;;;5.33;3.00;;;;;-146.44;100.00;58906.56;5035448;28;48550;-58
2023/01/04 01:47:48;;;;;;;;;4.67;3.00;;;;;-146.44;100.00;58906.56;5034447;28;45475;-62
2023/01/04 01:50:40;;;;;;;;;2.33;2.33;;;;;-146.44;100.00;58906.56;5035660;28;45401;-57
2023/01/04 01:53:07;;;;;;;;;3.00;3.00;;;;;-146.44;100.00;58906.56;5035743;28;45333;-57
2023/01/04 01:55:34;;;;;;;;;2.67;2.67;;;;;-146.44;100.00;58906.56;5035513;28;46086;-58
2023/01/04 01:58:00;;;;;;;;;3.67;3.67;;;;;-146.44;100.00;58906.56;5033815;28;45547;-59
2023/01/04 02:00:27;;;;;;;;;3.00;3.00;;;;;-146.44;100.00;58906.56;5035748;28;45460;-56
2023/01/04 02:03:02;;;;;;;;;3.00;3.00;;;;;-146.44;100.00;58906.56;5034454;28;45544;-59
2023/01/04 02:05:30;;;;;;;;;2.33;2.33;;;;;-146.44;100.00;58906.56;5034034;28;46054;-61
2023/01/04 02:07:55;;;;;;;;;3.00;3.00;;;;;-146.44;100.00;58906.56;5035247;28;45396;-57
2023/01/04 02:10:22;;;;;;;;;3.00;3.00;;;;;-146.44;100.00;58906.56;5034580;28;45398;-58
2023/01/04 02:12:50;;;;;;;;;3.33;3.00;;;;;-146.44;100.00;58906.56;5033725;28;45500;-57
2023/01/04 02:15:16;;;;;;;;;1.67;1.67;;;;;-146.44;100.00;58906.56;5034823;28;45482;-60
2023/01/04 02:17:51;;;;;;;;;3.00;3.00;;;;;-146.44;100.00;58906.56;5035177;28;45438;-60
2023/01/04 02:20:43;;;;;;;;;4.00;4.00;;;;;-146.44;100.00;58906.56;5035753;28;45421;-58
2023/01/04 02:23:18;;;;;;;;;2.00;2.00;;;;;-146.44;100.00;58906.56;5035325;28;45443;-61
2023/01/04 02:26:14;;;;;;;;;3.33;3.33;;;;;-146.44;100.00;58906.56;5016822;28;45486;-58
2023/01/04 02:29:21;;;;;;;;;1.33;1.33;;;;;-146.44;100.00;58906.56;5015368;28;45400;-58
2023/01/04 02:32:06;;;;;;;;;3.00;3.00;;;;;-146.44;100.00;58906.56;5015503;28;45414;-61
2023/01/04 02:34:41;;;;;;;;;2.33;2.33;;;;;-146.44;100.00;58906.56;5015467;28;45461;-59
2023/01/04 02:37:23;;;;;;;;;6.67;4.33;;;;;-146.44;100.00;58906.56;5014787;28;46394;-61
2023/01/04 02:40:00;;;;;;;;;4.00;2.00;;;;;-146.44;100.00;58906.56;5015054;28;45370;-55
2023/01/04 02:45:34;;;;;;;;;4.00;3.67;;;;;-146.44;100.00;58906.56;5014986;28;45403;-61
2023/01/04 02:50:59;;;;;;;;;3.00;3.00;;;;;-146.44;100.00;58906.56;5014481;28;45351;-59
2023/01/04 02:53:44;;;;;;;;;2.67;2.67;;;;;-146.44;100.00;58906.56;5014985;28;45552;-60
2023/01/04 02:56:34;;;;;;;;;2.00;2.00;;;;;-146.44;100.00;58906.56;5001798;28;45587;-55
2023/01/04 02:59:21;;;;;;;;;1.00;1.00;;;;;-146.44;100.00;58906.56;5014620;28;46866;-57
2023/01/04 03:07:48;;;;;;;;;3.00;2.00;;;;;-146.44;100.00;58906.56;5014232;28;45549;-55
2023/01/04 03:10:35;;;;;;;;;2.00;2.00;;;;;-146.44;100.00;58906.56;5014814;28;45511;-58
2023/01/04 03:13:26;;;;;;;;;1.00;1.00;;;;;-146.44;100.00;58906.56;5009556;28;45359;-57
2023/01/04 03:15:56;;;;;;;;;3.00;3.00;;;;;-146.44;100.00;58906.56;5017118;28;45419;-58
2023/01/04 03:18:36;;;;;;;;;4.33;3.00;;;;;-146.44;100.00;58906.56;5017280;28;45477;-56
2023/01/04 03:21:03;;;;;;;;;2.67;1.67;;;;;-146.44;100.00;58906.56;5016433;28;45453;-59
2023/01/04 03:37:50;;;;;;;;;1.67;1.67;;;;;-146.44;100.00;58906.56;5017076;28;45473;-60
2023/01/04 03:49:14;;;;;;;;;2.00;1.00;;;;;-146.44;100.00;58906.56;5008549;28;45540;-52
2023/01/04 03:51:41;;;;;;;;;3.00;1.67;;;;;-146.44;100.00;58906.56;5016473;28;45564;-58
2023/01/04 03:54:13;;;;;;;;;1.33;1.33;;;;;-146.44;100.00;58906.56;5015323;28;45442;-54
2023/01/04 03:56:42;;;;;;;;;3.00;3.00;;;;;-146.44;100.00;58906.56;5015278;28;45549;-58
2023/01/04 03:59:08;;;;;;;;;0.33;0.33;;;;;-146.44;100.00;58906.56;5016180;28;45549;-61
2023/01/04 04:01:34;;;;;;;;;3.00;3.00;;;;;-146.44;100.00;58906.56;5015848;28;45359;-57
2023/01/04 04:09:28;;;;;;;;;1.33;1.33;;;;;-146.44;100.00;58906.56;5016493;28;45441;-56
2023/01/04 04:11:53;;;;;;;;;1.00;1.00;;;;;-146.44;100.00;58906.56;5018739;28;45735;-56
2023/01/04 04:14:18;;;;;;;;;2.00;2.00;;;;;-146.44;100.00;58906.56;5016845;28;45380;-58
2023/01/04 04:16:44;;;;;;;;;0.00;0.00;;;;;-146.44;100.00;58906.56;5015591;28;49298;-60
2023/01/04 04:19:09;;;;;;;;;1.00;1.00;;;;;-146.44;100.00;58906.56;5017900;28;45422;-62
2023/01/04 04:21:35;;;;;;;;;2.00;2.00;;;;;-146.44;100.00;58906.56;5013918;28;45368;-57
2023/01/04 04:24:01;;;;;;;;;1.00;0.67;;;;;-146.44;100.00;58906.56;5008534;28;45553;-55
2023/01/04 04:26:26;;;;;;;;;2.33;2.33;;;;;-146.44;100.00;58906.56;5014668;28;45572;-57
2023/01/04 04:28:51;;;;;;;;;1.00;1.00;;;;;-146.44;100.00;58906.56;5016843;28;45304;-61
2023/01/04 04:31:16;;;;;;;;;1.00;1.00;;;;;-146.44;100.00;58906.56;5016900;28;45293;-58
2023/01/04 04:33:42;;;;;;;;;3.00;3.00;;;;;-146.44;100.00;58906.56;5015877;28;46031;-57
2023/01/04 04:36:08;;;;;;;;;2.67;2.67;;;;;-146.44;100.00;58906.56;5016613;28;45466;-59
2023/01/04 04:38:34;;;;;;;;;1.00;1.00;;;;;-146.44;100.00;58906.56;5016765;28;45499;-59
2023/01/04 04:43:49;;;;;;;;;4.00;3.00;;;;;-146.44;100.00;58906.56;5004383;28;46503;-55
2023/01/04 04:46:14;;;;;;;;;4.00;4.00;;;;;-146.44;100.00;58906.56;5016631;28;45450;-60
2023/01/04 04:48:40;;;;;;;;;2.00;2.00;;;;;-146.44;100.00;58906.56;5015632;28;47607;-55
2023/01/04 04:51:05;;;;;;;;;3.00;3.00;;;;;-146.44;100.00;58906.56;5016656;28;45650;-60
2023/01/04 04:53:30;;;;;;;;;2.00;2.00;;;;;-146.44;100.00;58906.56;5015684;28;55429;-57
2023/01/04 04:55:56;;;;;;;;;2.00;2.00;;;;;-146.44;100.00;58906.56;5016379;28;47822;-57
2023/01/04 04:58:21;;;;;;;;;1.00;1.00;;;;;-146.44;100.00;58906.56;5016080;28;45371;-57
2023/01/04 05:00:46;;;;;;;;;3.00;3.00;;;;;-146.44;100.00;58906.56;5016536;28;45549;-58
2023/01/04 05:03:12;;;;;;;;;1.00;1.00;;;;;-146.44;100.00;58906.56;5015935;28;45481;-56
2023/01/04 05:05:37;;;;;;;;;2.00;2.00;;;;;-146.44;100.00;58906.56;5016337;28;45363;-56
2023/01/04 05:08:03;;;;;;;;;2.00;2.00;;;;;-146.44;100.00;58906.56;5015979;28;45400;-59
2023/01/04 05:10:28;;;;;;;;;5.00;2.33;;;;;-146.44;100.00;58906.56;5015884;28;45338;-60
2023/01/04 05:12:59;;;;;;;;;2.00;2.00;;;;;-146.44;100.00;58906.56;5016289;28;45403;-60
2023/01/04 05:15:28;;;;;;;;;2.00;2.00;;;;;-146.44;100.00;58906.56;5016390;28;45496;-63
2023/01/04 05:17:53;;;;;;;;;3.00;3.00;;;;;-146.44;100.00;58906.56;5016385;28;45347;-58
2023/01/04 05:20:18;;;;;;;;;1.67;1.67;;;;;-146.44;100.00;58906.56;5016348;28;45523;-60
2023/01/04 05:22:44;;;;;;;;;2.00;2.00;;;;;-146.44;100.00;58906.56;5016046;28;47168;-57
2023/01/04 05:25:10;;;;;;;;;2.00;2.00;;;;;-146.44;100.00;58906.56;5016278;28;45623;-59
2023/01/04 05:27:36;;;;;;;;;3.00;1.33;;;;;-146.44;100.00;58906.56;5015919;28;45362;-59
2023/01/04 05:32:47;;;;;;;;;3.00;3.00;;;;;-146.44;100.00;58906.56;5015119;28;45783;-57
2023/01/04 05:35:12;;;;;;;;;3.00;3.00;;;;;-146.44;100.00;58906.56;5015951;28;45469;-59
2023/01/04 05:37:37;;;;;;;;;2.00;2.00;;;;;-146.44;100.00;58906.56;5015876;28;48014;-54
2023/01/04 05:40:03;;;;;;;;;1.67;1.67;;;;;-146.44;100.00;58906.56;5015102;28;45504;-58
2023/01/04 05:42:28;;;;;;;;;2.00;2.00;;;;;-146.44;100.00;58906.56;5015995;28;45433;-58
2023/01/04 05:44:56;;;;;;;;;1.00;1.00;;;;;-146.44;100.00;58906.56;5015844;28;46129;-59
2023/01/04 05:47:23;;;;;;;;;2.00;2.00;;;;;-146.44;100.00;58906.56;5015338;28;45518;-53
2023/01/04 05:49:48;;;;;;;;;2.00;2.00;;;;;-146.44;100.00;58906.56;5015257;28;45365;-59
2023/01/04 05:52:13;;;;;;;;;2.00;2.00;;;;;-146.44;100.00;58906.56;5015464;28;46066;-56
2023/01/04 05:54:39;;;;;;;;;3.00;2.00;;;;;-146.44;100.00;58906.56;5015642;28;45428;-60
2023/01/04 05:57:04;;;;;;;;;1.33;1.33;;;;;-146.44;100.00;58906.56;5015524;28;45426;-61
2023/01/04 05:59:30;;;;;;;;;3.33;1.33;;;;;-146.44;100.00;58906.56;5015615;28;45424;-57
2023/01/04 06:01:55;;;;;;;;;1.67;1.67;;;;;-146.44;100.00;58906.56;5014820;28;46286;-54
2023/01/04 06:04:20;;;;;;;;;2.00;1.00;;;;;-146.44;100.00;58906.56;5015546;28;45467;-55
2023/01/04 06:06:46;;;;;;;;;2.00;2.00;;;;;-146.44;100.00;58906.56;5015810;28;45412;-61
2023/01/04 06:09:11;;;;;;;;;3.00;1.00;;;;;-146.44;100.00;58906.56;5014372;28;45430;-58
2023/01/04 06:11:37;;;;;;;;;1.00;1.00;;;;;-146.44;100.00;58906.56;5015048;28;46009;-59
2023/01/04 06:14:02;;;;;;;;;1.00;1.00;;;;;-146.44;100.00;58906.56;5015498;28;45420;-58
2023/01/04 06:16:27;;;;;;;;;1.00;1.00;;;;;-146.44;100.00;58906.56;5015655;28;45457;-54
2023/01/04 06:18:53;;;;;;;;;1.67;1.00;;;;;-146.44;100.00;58906.56;5015501;28;45567;-57
2023/01/04 06:21:18;;;;;;;;;1.00;1.00;;;;;-146.44;100.00;58906.56;5015265;28;50928;-60
2023/01/04 06:23:43;;;;;;;;;2.00;2.00;;;;;-146.44;100.00;58906.56;5015375;28;45444;-60
2023/01/04 06:26:09;;;;;;;;;2.00;2.00;;;;;-146.44;100.00;58906.56;5015336;28;45508;-61
2023/01/04 06:28:34;;;;;;;;;1.00;1.00;;;;;-146.44;100.00;58906.56;5014982;28;45462;-57
2023/01/04 06:31:04;;;;;;;;;2.00;2.00;;;;;-146.44;100.00;58906.56;5014890;28;46025;-60
2023/01/04 06:33:30;;;;;;;;;1.67;1.67;;;;;-146.44;100.00;58906.56;5013439;28;45609;-62
2023/01/04 06:35:55;;;;;;;;;1.67;1.67;;;;;-146.44;100.00;58906.56;5015114;28;45502;-57
2023/01/04 06:38:21;;;;;;;;;1.67;1.67;;;;;-146.44;100.00;58906.56;5015121;28;45605;-61
2023/01/04 06:40:46;;;;;;;;;2.00;2.00;;;;;-146.44;100.00;58906.56;5014387;28;46055;-57
2023/01/04 06:43:12;;;;;;;;;1.67;1.67;;;;;-146.44;100.00;58906.56;5013702;28;45497;-56
2023/01/04 06:45:37;;;;;;;;;1.33;1.33;;;;;-146.44;100.00;58906.56;5018596;28;46325;-57
2023/01/04 06:48:02;;;;;;;;;1.33;1.33;;;;;-146.44;100.00;58906.56;5018749;28;45637;-54
2023/01/04 06:50:28;;;;;;;;;1.00;1.00;;;;;-146.44;100.00;58906.56;5018642;28;46112;-51
2023/01/04 06:52:53;;;;;;;;;1.00;1.00;;;;;-146.44;100.00;58906.56;5018343;28;47396;-56
2023/01/04 06:55:18;;;;;;;;;1.00;1.00;;;;;-146.44;100.00;58906.56;5018697;28;45424;-58
2023/01/04 06:57:44;;;;;;;;;1.00;1.00;;;;;-146.44;100.00;58906.56;5015597;28;45495;-62
2023/01/04 07:00:10;;;;;;;;;2.00;2.00;;;;;-146.44;100.00;58906.56;5015646;28;45884;-57
2023/01/04 07:02:35;;;;;;;;;2.00;2.00;;;;;-146.44;100.00;58906.56;5017447;28;45573;-60
2023/01/04 07:05:01;;;;;;;;;1.33;1.33;;;;;-146.44;100.00;58906.56;5016511;28;45597;-62
2023/01/04 07:07:26;;;;;;;;;1.67;0.00;;;;;-146.44;100.00;58906.56;5015469;28;45411;-59
2023/01/04 07:09:51;;;;;;;;;2.00;2.00;;;;;-146.44;100.00;58906.56;5015992;28;45493;-58
2023/01/04 07:12:17;;;;;;;;;1.00;1.00;;;;;-146.44;100.00;58906.56;5016103;28;45430;-60
2023/01/04 07:14:42;;;;;;;;;1.00;1.00;;;;;-146.44;100.00;58906.56;5014113;28;45613;-57
2023/01/04 07:17:07;;;;;;;;;1.00;1.00;;;;;-146.44;100.00;58906.56;5016873;28;45430;-63
2023/01/04 07:19:33;;;;;;;;;1.67;1.67;;;;;-146.44;100.00;58906.56;5016873;28;45615;-58
2023/01/04 07:21:59;;;;;;;;;1.00;1.00;;;;;-146.44;100.00;58906.56;5016202;28;45442;-56
2023/01/04 07:24:25;;;;;;;;;1.00;0.00;;;;;-146.44;100.00;58906.56;5018151;28;45367;-55
2023/01/04 07:26:50;;;;;;;;;2.33;2.00;;;;;-146.44;100.00;58906.56;5017939;28;45495;-59
2023/01/04 07:29:16;;;;;;;;;0.00;0.00;;;;;-146.44;100.00;58906.56;5016973;28;45452;-58
2023/01/04 07:31:46;;;;;;;;;3.33;2.33;;;;;-146.44;100.00;58906.56;5017759;28;45484;-58
2023/01/04 07:34:13;;;;;;;;;1.00;1.00;;;;;-146.44;100.00;58906.56;5018258;28;45344;-54
2023/01/04 07:36:39;;;;;;;;;1.67;1.67;;;;;-146.44;100.00;58906.56;5015870;28;45341;-58
2023/01/04 07:39:04;;;;;;;;;2.00;2.00;;;;;-146.44;100.00;58906.56;5015512;28;46074;-58
2023/01/04 07:41:30;;;;;;;;;1.00;1.00;;;;;-146.44;100.00;58906.56;5017394;28;45429;-58
2023/01/04 07:43:55;;;;;;;;;2.00;1.00;;;;;-146.44;100.00;58906.56;5017206;28;45524;-56
2023/01/04 07:46:21;;;;;;;;;1.00;1.00;;;;;-146.44;100.00;58906.56;5017326;28;46896;-59
2023/01/04 07:48:46;;;;;;;;;2.00;2.00;;;;;-146.44;100.00;58906.56;5017007;28;45957;-56
2023/01/04 07:51:11;;;;;;;;;1.00;1.00;;;;;-146.44;100.00;58906.56;5017253;28;45482;-55
2023/01/04 07:53:37;;;;;;;;;2.00;2.00;;;;;-146.44;100.00;58906.56;5016931;28;45690;-56
2023/01/04 07:56:02;;;;;;;;;0.67;0.67;;;;;-146.44;100.00;58906.56;5016424;28;45553;-60
2023/01/04 07:58:31;;;;;;;;;1.33;1.33;;;;;-146.44;100.00;58906.56;5015523;28;45866;-54
2023/01/04 08:01:15;;;;;;;;;2.00;2.00;;;;;-146.44;100.00;58906.56;5016108;28;45381;-57
2023/01/04 08:03:40;;;;;;;;;1.00;1.00;;;;;-146.44;100.00;58906.56;5017215;28;45502;-56
2023/01/04 08:06:08;;;;;;;;;2.00;2.00;;;;;-146.44;100.00;58906.56;5016922;28;45355;-56
2023/01/04 08:08:34;;;;;;;;;4.00;4.00;;;;;-146.44;100.00;58906.56;5016370;28;45380;-59
2023/01/04 08:11:00;;;;;;;;;3.00;3.00;;;;;-146.44;100.00;58906.56;5015314;28;45419;-55
2023/01/04 08:13:26;;;;;;;;;1.67;1.67;;;;;-146.44;100.00;58906.56;5015689;28;45431;-58
2023/01/04 08:15:52;;;;;;;;;2.00;2.00;;;;;-146.44;100.00;58906.56;5016776;28;45486;-56
2023/01/04 08:18:17;;;;;;;;;2.00;2.00;;;;;-146.44;100.00;58906.56;5016814;28;45514;-54
2023/01/04 08:20:43;;;;;;;;;3.00;3.00;;;;;-146.44;100.00;58906.56;5016939;28;45540;-56
2023/01/04 08:23:08;;;;;;;;;2.33;2.33;;;;;-146.44;100.00;58906.56;5016702;28;45418;-56
2023/01/04 08:25:33;;;;;;;;;2.00;2.00;;;;;-146.44;100.00;58906.56;5016577;28;45469;-56
2023/01/04 08:27:59;;;;;;;;;2.67;2.67;;;;;-146.44;100.00;58906.56;5016503;28;45530;-58
2023/01/04 08:30:24;;;;;;;;;4.00;3.00;;;;;-146.44;100.00;58906.56;5015145;28;51454;-58
2023/01/04 08:32:52;;;;;;;;;2.33;2.33;;;;;-146.44;100.00;58906.56;5016589;28;45497;-57
2023/01/04 08:35:17;;;;;;;;;2.00;2.00;;;;;-146.44;100.00;58906.56;5015033;28;45451;-57
2023/01/04 08:37:43;;;;;;;;;2.00;2.00;;;;;-146.44;100.00;58906.56;5015748;28;46643;-57
2023/01/04 08:40:08;;;;;;;;;2.00;2.00;;;;;-146.44;100.00;58906.56;5015100;28;45468;-56
2023/01/04 08:42:34;;;;;;;;;2.00;2.00;;;;;-146.44;100.00;58906.56;5016076;28;45380;-56
2023/01/04 08:45:00;;;;;;;;;3.00;1.67;;;;;-146.44;100.00;58906.56;5012580;28;45691;-56
2023/01/04 08:47:25;;;;;;;;;2.00;2.00;;;;;-146.44;100.00;58906.56;5016079;28;45532;-56
2023/01/04 08:49:51;;;;;;;;;6.33;4.00;;;;;-146.44;100.00;58906.56;5016133;28;45441;-54
2023/01/04 08:52:16;;;;;;;;;2.00;2.00;;;;;-146.44;100.00;58906.56;5016172;28;47085;-57
2023/01/04 08:54:41;;;;;;;;;1.00;1.00;;;;;-146.44;100.00;58906.56;5016373;28;45379;-57
2023/01/04 08:57:07;;;;;;;;;2.00;2.00;;;;;-146.44;100.00;58906.56;5016152;28;45497;-59
2023/01/04 08:59:32;;;;;;;;;3.00;1.67;;;;;-146.44;100.00;58906.56;5016304;28;45466;-56
2023/01/04 09:01:58;;;;;;;;;1.67;1.67;;;;;-146.44;100.00;58906.56;5015563;28;45454;-58
2023/01/04 09:04:23;;;;;;;;;2.00;2.00;;;;;-146.44;100.00;58906.56;5016074;28;45519;-57
2023/01/04 09:06:49;;;;;;;;;1.67;1.00;;;;;-146.44;100.00;58906.56;5015266;28;45509;-57
2023/01/04 09:09:14;;;;;;;;;1.00;1.00;;;;;-146.44;100.00;58906.56;5014429;28;45466;-61
2023/01/04 09:11:39;;;;;;;;;4.00;2.00;;;;;-146.44;100.00;58906.56;5014975;28;45483;-55
2023/01/04 09:14:07;;;;;;;;;1.00;1.00;;;;;-146.44;100.00;58906.56;5015906;28;45493;-57
2023/01/04 09:16:33;;;;;;;;;1.00;1.00;;;;;-146.44;100.00;58906.56;5012074;28;45478;-58
2023/01/04 09:18:58;;;;;;;;;2.00;2.00;;;;;-146.44;100.00;58906.56;5016200;28;45447;-58
2023/01/04 09:21:23;;;;;;;;;1.00;1.00;;;;;-146.44;100.00;58906.56;5030137;28;45431;-56
2023/01/04 09:23:49;;;;;;;;;1.67;1.67;;;;;-146.44;100.00;58906.56;5015848;28;48260;-64
2023/01/04 09:26:18;;;;;;;;;1.00;1.00;;;;;-146.44;100.00;58906.56;5015374;28;45538;-66
2023/01/04 09:28:44;;;;;;;;;1.00;1.00;;;;;-146.44;100.00;58906.56;5029200;28;45649;-60
2023/01/04 09:31:15;;;;;;;;;3.00;3.00;;;;;-146.44;100.00;58906.56;5014542;28;45517;-65
2023/01/04 09:33:41;;;;;;;;;2.00;2.00;;;;;-146.44;100.00;58906.56;5016131;28;45498;-59
2023/01/04 09:36:09;;;;;;;;;2.67;1.00;;;;;-146.44;100.00;58906.56;5016035;28;46033;-64
2023/01/04 09:38:36;;;;;;;;;1.67;1.67;;;;;-146.44;100.00;58906.56;5026463;28;45292;-62
2023/01/04 09:41:13;;;;;;;;;0.00;0.00;;;;;-146.44;100.00;58906.56;5013720;28;45591;-63
2023/01/04 09:43:45;;;;;;;;;1.67;1.67;;;;;-146.44;100.00;58906.56;5013547;28;45513;-60
2023/01/04 09:46:37;;;;;;;;;4.00;2.00;;;;;-146.44;100.00;58906.56;5008484;28;45801;-59
2023/01/04 09:49:27;;;;;;;;;1.33;1.33;;;;;-146.44;100.00;58906.56;5012437;28;45505;-61
2023/01/04 09:52:46;;;;;;;;;2.33;2.00;;;;;-146.44;100.00;58906.56;5015947;28;45506;-60
2023/01/04 09:55:26;;;;;;;;;4.67;3.00;;;;;-146.44;100.00;58906.56;4995482;28;45611;-62
2023/01/04 09:57:59;;;;;;;;;1.67;1.67;;;;;-146.44;100.00;58906.56;5002955;28;45436;-59
2023/01/04 10:00:29;;;;;;;;;2.67;2.67;;;;;-146.44;100.00;58906.56;5008219;28;45619;-60
2023/01/04 10:03:28;;;;;;;;;2.00;2.00;;;;;-146.44;100.00;58906.56;5014497;28;45613;-64
2023/01/04 10:05:55;;;;;;;;;4.00;3.00;;;;;-146.44;100.00;58906.56;5014772;28;45548;-62
2023/01/04 10:08:21;;;;;;;;;2.00;2.00;;;;;-146.44;100.00;58906.56;5013408;28;46187;-57
2023/01/04 10:11:14;;;;;;;;;2.33;2.33;;;;;-146.44;100.00;58906.56;5015109;28;45500;-54
2023/01/04 10:14:18;;;;;;;;;1.67;1.67;;;;;-146.44;100.00;58906.56;5015959;28;45461;-58
2023/01/04 10:16:59;;;;;;;;;2.00;1.00;;;;;-146.44;100.00;58906.56;5015026;28;45486;-60
2023/01/04 10:19:42;;;;;;;;;2.33;2.33;;;;;-146.44;100.00;58906.56;5017184;28;46295;-65
2023/01/04 10:22:17;;;;;;;;;2.00;2.00;;;;;-146.44;100.00;58906.56;5019160;28;45460;-65
2023/01/04 10:24:54;;;;;;;;;3.00;2.00;;;;;-146.44;100.00;58906.56;5017526;28;45498;-66
2023/01/04 10:27:46;;;;;;;;;2.00;2.00;;;;;-146.44;100.00;58906.56;5019043;28;45461;-66
2023/01/04 10:30:23;;;;;;;;;1.00;1.00;;;;;-146.44;100.00;58906.56;5017274;28;46270;-64
2023/01/04 10:33:09;;;;;;;;;2.00;2.00;;;;;-146.44;100.00;58906.56;5018831;28;45406;-66
2023/01/04 10:35:34;;;;;;;;;2.00;2.00;;;;;-146.44;100.00;58906.56;5007814;28;45581;-64
2023/01/04 10:38:03;;;;;;;;;4.00;2.00;;;;;-146.44;100.00;58906.56;5018734;28;45629;-62
2023/01/04 10:40:33;;;;;;;;;2.00;2.00;;;;;-146.44;100.00;58906.56;5017512;28;45440;-61
2023/01/04 10:43:03;;;;;;;;;2.00;2.00;;;;;-146.44;100.00;58906.56;5018522;28;45504;-64
2023/01/04 10:45:46;;;;;;;;;2.33;1.33;;;;;-146.44;100.00;58906.56;5018007;28;45480;-68
2023/01/04 10:48:29;;;;;;;;;1.00;1.00;;;;;-146.44;100.00;58906.56;5018154;28;45777;-62
2023/01/04 10:50:57;;;;;;;;;1.33;1.33;;;;;-146.44;100.00;58906.56;5020126;28;45687;-64
2023/01/04 10:53:31;;;;;;;;;2.00;2.00;;;;;-146.44;100.00;58906.56;5018565;28;45434;-63
2023/01/04 10:56:03;;;;;;;;;4.33;2.00;;;;;-146.44;100.00;58906.56;5017345;28;45453;-63
2023/01/04 10:58:45;;;;;;;;;4.00;3.33;;;;;-146.44;100.00;58906.56;5018435;28;45415;-66
2023/01/04 11:01:43;;;;;;;;;3.00;3.00;;;;;-146.44;100.00;58906.56;5017458;28;46359;-65
2023/01/04 11:04:19;;;;;;;;;2.00;2.00;;;;;-146.44;100.00;58906.56;5006667;28;45678;-55
2023/01/04 11:06:53;;;;;;;;;2.00;2.00;;;;;-146.44;100.00;58906.56;5017941;28;45513;-56
2023/01/04 11:09:46;;;;;;;;;3.00;3.00;;;;;-146.44;100.00;58906.56;5015879;28;45418;-52
2023/01/04 11:12:15;;;;;;;;;3.67;2.00;;;;;-146.44;100.00;58906.56;4983670;28;46283;-52
2023/01/04 11:14:41;;;;;;;;;5.00;4.33;;;;;-146.44;100.00;58906.56;5017764;28;45579;-56
2023/01/04 11:17:09;;;;;;;;;4.00;3.67;;;;;-146.44;100.00;58906.56;5017964;28;45410;-57
2023/01/04 11:19:35;;;;;;;;;3.00;3.00;;;;;-146.44;100.00;58906.56;5018011;28;45544;-59
2023/01/04 11:22:33;;;;;;;;;3.00;2.00;;;;;-146.44;100.00;58906.56;5017793;28;45429;-54
2023/01/04 11:25:06;;;;;;;;;3.00;2.67;;;;;-146.44;100.00;58906.56;5000984;28;45369;-53
2023/01/04 11:27:43;;;;;;;;;2.00;2.00;;;;;-146.44;100.00;58906.56;5017614;28;45496;-55
2023/01/04 11:30:11;;;;;;;;;3.00;3.00;;;;;-146.44;100.00;58906.56;5015880;28;45434;-55
2023/01/04 11:32:49;;;;;;;;;2.33;2.33;;;;;-146.44;100.00;58906.56;5017311;28;46178;-49
2023/01/04 11:35:14;;;;;;;;;2.00;1.00;;;;;-146.44;100.00;58906.56;5017808;28;45582;-53
2023/01/04 11:37:41;;;;;;;;;1.00;1.00;;;;;-146.44;100.00;58906.56;5017768;28;45579;-53
2023/01/04 11:40:15;;;;;;;;;1.00;1.00;;;;;-146.44;100.00;58906.56;5017824;28;45431;-53
2023/01/04 11:42:45;;;;;;;;;4.00;3.67;;;;;-146.44;100.00;58906.56;5017794;28;45482;-56
2023/01/04 11:45:21;;;;;;;;;1.00;1.00;;;;;-146.44;100.00;58906.56;5017313;28;45633;-53
2023/01/04 11:47:57;;;;;;;;;2.00;2.00;;;;;-146.44;100.00;58906.56;5017960;28;45412;-53
2023/01/04 11:50:42;;;;;;;;;2.67;2.67;;;;;-146.44;100.00;58906.56;5017511;28;45398;-55
2023/01/04 11:53:26;;;;;;;;;1.33;1.33;;;;;-146.44;100.00;58906.56;5017465;28;46009;-56
2023/01/04 11:56:06;;;;;;;;;3.33;3.33;;;;;-146.44;100.00;58906.56;5017157;28;45504;-54
2023/01/04 11:58:32;;;;;;;;;2.00;2.00;;;;;-146.44;100.00;58906.56;5017394;28;45351;-54
2023/01/04 12:00:57;;;;;;;;;3.00;3.00;;;;;-146.44;100.00;58906.56;5016239;28;45507;-53
2023/01/04 12:03:30;;;;;;;;;4.00;3.00;;;;;-146.44;100.00;58906.56;5016405;28;57018;-55
2023/01/04 12:05:57;;;;;;;;;2.00;2.00;;;;;-146.44;100.00;58906.56;5017196;28;45363;-53
2023/01/04 12:08:30;;;;;;;;;2.00;2.00;;;;;-146.44;100.00;58906.56;5016636;28;45526;-52
2023/01/04 12:10:58;;;;;;;;;1.00;1.00;;;;;-146.44;100.00;58906.56;5016396;28;45483;-51
2023/01/04 12:13:23;;;;;;;;;2.00;2.00;;;;;-146.44;100.00;58906.56;5013001;28;45546;-55
2023/01/04 12:15:59;;;;;;;;;1.00;1.00;;;;;-146.44;100.00;58906.56;5016518;28;45550;-55